Time;durP1;ratioP1;P1;durP2;ratioP2;P2;SDS_P1;SDS_P2;PMS_P1;PMS_P2;Temp;Humidity;BMP_temperature;BMP_pressure;BME280_temperature;BME280_humidity;BME280_pressure;Samples;Min_cycle;Max_cycle;Signal;HPM_P1;HPM_P2
2021/11/17 02:27:25;;;;;;;28.20;13.43;;;6.90;99.90;;;;;;4971909;29;20245;-79
2021/11/17 02:30:09;;;;;;;32.50;15.55;;;6.90;99.90;;;;;;4972693;28;20229;-78
2021/11/17 02:32:58;;;;;;;28.20;14.75;;;6.90;99.90;;;;;;4969106;28;20229;-79
2021/11/17 02:35:41;;;;;;;27.10;13.85;;;6.90;99.90;;;;;;4969004;28;20213;-78
2021/11/17 02:38:22;;;;;;;25.33;13.30;;;7.00;99.90;;;;;;4966879;28;20268;-78
2021/11/17 02:41:12;;;;;;;28.67;13.82;;;7.00;99.90;;;;;;4963569;28;20309;-79
2021/11/17 02:44:02;;;;;;;27.58;14.80;;;7.00;99.90;;;;;;4962663;28;20575;-79
2021/11/17 02:46:45;;;;;;;29.00;14.38;;;6.90;99.90;;;;;;4960668;28;20321;-78
2021/11/17 02:49:26;;;;;;;29.77;14.00;;;6.90;99.90;;;;;;4960923;28;20244;-78
2021/11/17 02:52:27;;;;;;;29.58;14.43;;;6.90;99.90;;;;;;4958718;28;20722;-79
2021/11/17 02:55:13;;;;;;;29.77;14.63;;;6.90;99.90;;;;;;4935881;29;20675;-79
2021/11/17 02:57:55;;;;;;;28.83;15.20;;;6.90;99.90;;;;;;4934466;29;20216;-79
2021/11/17 03:00:51;;;;;;;26.42;14.52;;;7.00;99.90;;;;;;4945028;29;20718;-78
2021/11/17 03:03:38;;;;;;;27.52;14.18;;;7.00;99.90;;;;;;4956165;29;20226;-78
2021/11/17 03:06:23;;;;;;;31.48;15.80;;;7.00;99.90;;;;;;4947754;29;20242;-79
2021/11/17 03:09:13;;;;;;;26.95;15.02;;;7.00;99.90;;;;;;4955488;29;20684;-80
2021/11/17 03:11:53;;;;;;;31.33;15.23;;;7.00;99.90;;;;;;4944692;29;20635;-79
2021/11/17 03:14:43;;;;;;;33.40;15.00;;;7.00;99.90;;;;;;4958458;28;20209;-79
2021/11/17 03:17:29;;;;;;;29.83;14.07;;;7.00;99.90;;;;;;4956347;28;20198;-79
2021/11/17 03:20:17;;;;;;;27.63;12.68;;;7.00;99.90;;;;;;4955976;28;20236;-78
2021/11/17 03:22:57;;;;;;;28.10;13.32;;;6.90;99.90;;;;;;4956187;28;20225;-79
2021/11/17 03:25:38;;;;;;;26.73;14.32;;;6.90;99.90;;;;;;4955832;28;20233;-79
2021/11/17 03:28:24;;;;;;;30.23;14.55;;;6.90;99.90;;;;;;4956058;28;20290;-79
2021/11/17 03:31:06;;;;;;;27.00;14.05;;;6.90;99.90;;;;;;4955911;28;20328;-79
2021/11/17 03:33:52;;;;;;;30.25;13.77;;;6.90;99.90;;;;;;4955661;28;20206;-80
2021/11/17 03:36:45;;;;;;;33.97;15.07;;;6.90;99.90;;;;;;4955930;28;20201;-79
2021/11/17 03:39:59;;;;;;;26.75;13.63;;;6.90;99.90;;;;;;4955527;28;20238;-79
2021/11/17 03:42:52;;;;;;;29.83;14.70;;;6.90;99.90;;;;;;4929260;28;20232;-79
2021/11/17 03:45:43;;;;;;;27.83;13.70;;;6.90;99.90;;;;;;4955523;28;20234;-79
2021/11/17 03:48:35;;;;;;;25.50;13.32;;;6.90;99.90;;;;;;4955491;28;20214;-79
2021/11/17 03:51:17;;;;;;;24.60;11.82;;;7.00;99.90;;;;;;4954767;28;20241;-79
2021/11/17 03:53:59;;;;;;;26.98;12.93;;;7.00;99.90;;;;;;4954881;28;20753;-79
2021/11/17 03:56:45;;;;;;;21.65;11.63;;;7.00;99.90;;;;;;4955117;28;20308;-79
2021/11/17 03:59:38;;;;;;;26.45;13.52;;;7.00;99.90;;;;;;4955347;28;20244;-80
2021/11/17 04:02:18;;;;;;;25.92;13.40;;;7.00;99.90;;;;;;4954945;28;20552;-79
2021/11/17 04:04:59;;;;;;;28.33;13.07;;;7.00;99.90;;;;;;4955170;28;20747;-79
2021/11/17 04:07:40;;;;;;;24.05;12.23;;;7.00;99.90;;;;;;4955424;28;20249;-79
2021/11/17 04:10:25;;;;;;;26.90;12.70;;;7.00;99.90;;;;;;4954795;28;20230;-79
2021/11/17 04:13:03;;;;;;;28.60;13.57;;;7.00;99.90;;;;;;4954991;28;20212;-79
2021/11/17 04:15:51;;;;;;;24.55;11.85;;;7.00;99.90;;;;;;4954845;28;20237;-79
2021/11/17 04:18:31;;;;;;;23.77;11.10;;;7.00;99.90;;;;;;4955404;28;20210;-79
2021/11/17 04:21:23;;;;;;;22.55;11.30;;;7.10;99.90;;;;;;4955830;28;20318;-79
2021/11/17 04:24:21;;;;;;;21.38;11.60;;;7.00;99.90;;;;;;4954396;28;20300;-78
2021/11/17 04:27:02;;;;;;;22.10;11.02;;;7.00;99.90;;;;;;4957509;28;20220;-79
2021/11/17 04:30:06;;;;;;;24.17;12.15;;;7.00;99.90;;;;;;4956805;28;20261;-78
2021/11/17 04:32:58;;;;;;;21.42;10.63;;;6.90;99.90;;;;;;4957310;28;20185;-79
2021/11/17 04:35:45;;;;;;;25.38;10.40;;;6.90;99.90;;;;;;4958218;28;20645;-79
2021/11/17 04:38:33;;;;;;;23.60;10.55;;;6.90;99.90;;;;;;4963768;28;20194;-79
2021/11/17 04:41:33;;;;;;;19.67;10.05;;;6.90;99.90;;;;;;4963373;28;20234;-78
2021/11/17 04:44:20;;;;;;;22.35;10.25;;;6.90;99.90;;;;;;4961324;28;20602;-79
2021/11/17 04:47:05;;;;;;;22.00;11.07;;;6.80;99.90;;;;;;4955388;28;20329;-79
2021/11/17 04:49:51;;;;;;;22.48;10.70;;;6.80;99.90;;;;;;4954948;28;20245;-78
2021/11/17 04:52:31;;;;;;;21.48;10.30;;;6.80;99.90;;;;;;4954939;28;20293;-79
2021/11/17 04:55:28;;;;;;;20.23;9.98;;;6.80;99.90;;;;;;4954744;28;20190;-79
2021/11/17 04:58:13;;;;;;;25.17;9.93;;;6.80;99.90;;;;;;4945094;28;20220;-79
2021/11/17 05:01:07;;;;;;;17.33;10.10;;;6.80;99.90;;;;;;4955764;28;20221;-79
2021/11/17 05:03:46;;;;;;;21.17;11.10;;;6.80;99.90;;;;;;4960818;28;20273;-80
2021/11/17 05:06:25;;;;;;;24.38;10.43;;;6.70;99.90;;;;;;4963389;28;20236;-80
2021/11/17 05:08:59;;;;;;;20.55;10.15;;;6.80;99.90;;;;;;4962796;28;20252;-80
2021/11/17 05:11:38;;;;;;;19.98;10.57;;;6.70;99.90;;;;;;4958951;28;20210;-79
2021/11/17 05:14:14;;;;;;;23.17;10.18;;;6.70;99.90;;;;;;4954721;28;20209;-80
2021/11/17 05:16:54;;;;;;;24.10;11.00;;;6.70;99.90;;;;;;4956116;29;20297;-80
2021/11/17 05:19:29;;;;;;;17.40;10.05;;;6.70;99.90;;;;;;4957840;28;20321;-79
2021/11/17 05:22:12;;;;;;;21.95;10.02;;;6.80;99.90;;;;;;4963210;28;20291;-79
2021/11/17 05:24:54;;;;;;;19.50;10.75;;;6.70;99.90;;;;;;4962943;28;20309;-79
2021/11/17 05:27:36;;;;;;;23.73;10.95;;;6.70;99.90;;;;;;4964196;28;20220;-78
2021/11/17 05:30:26;;;;;;;27.85;10.65;;;6.70;99.90;;;;;;4963662;28;20233;-79
2021/11/17 05:33:07;;;;;;;22.88;10.77;;;6.70;99.90;;;;;;4961382;28;20305;-79
2021/11/17 05:35:47;;;;;;;21.63;10.80;;;6.70;99.90;;;;;;4961880;28;20745;-79
2021/11/17 05:38:25;;;;;;;21.50;11.57;;;6.70;99.90;;;;;;4962190;28;20214;-79
2021/11/17 05:41:10;;;;;;;23.65;11.55;;;6.70;99.90;;;;;;4959044;28;20229;-78
2021/11/17 05:43:52;;;;;;;23.33;10.50;;;6.60;99.90;;;;;;4957703;28;20233;-78
2021/11/17 05:46:34;;;;;;;22.60;11.10;;;6.60;99.90;;;;;;4958149;28;20713;-79
2021/11/17 05:49:12;;;;;;;21.00;10.02;;;6.60;99.90;;;;;;4958962;28;20300;-80
2021/11/17 05:51:59;;;;;;;19.85;11.13;;;6.60;99.90;;;;;;4959025;28;20222;-80
2021/11/17 05:54:59;;;;;;;24.10;11.82;;;6.60;99.90;;;;;;4960851;28;20248;-82
2021/11/17 05:57:38;;;;;;;23.63;11.10;;;6.60;99.90;;;;;;4962000;28;20262;-79
2021/11/17 06:00:22;;;;;;;20.02;11.30;;;6.60;99.90;;;;;;4958883;28;20706;-79
2021/11/17 06:03:06;;;;;;;20.20;9.68;;;6.60;99.90;;;;;;4958788;28;20639;-79
2021/11/17 06:05:33;;;;;;;22.83;9.95;;;6.60;99.90;;;;;;4959428;28;20332;-79
2021/11/17 06:08:02;;;;;;;24.20;10.82;;;6.50;99.90;;;;;;4971418;29;20257;-79
2021/11/17 06:10:34;;;;;;;20.67;9.35;;;6.50;99.90;;;;;;4976486;29;20259;-80
2021/11/17 06:13:02;;;;;;;18.70;9.00;;;6.40;99.90;;;;;;4977519;28;20721;-80
2021/11/17 06:15:30;;;;;;;12.35;7.43;;;6.50;99.90;;;;;;4977355;28;20232;-82
2021/11/17 06:17:58;;;;;;;14.40;7.38;;;6.40;99.90;;;;;;4975383;28;20214;-79
2021/11/17 06:20:25;;;;;;;13.27;7.15;;;6.40;99.90;;;;;;4961674;28;20672;-80
2021/11/17 06:22:57;;;;;;;13.25;7.28;;;6.40;99.90;;;;;;4959143;28;20209;-78
2021/11/17 06:25:25;;;;;;;12.90;7.25;;;6.40;99.90;;;;;;4958497;28;20324;-79
2021/11/17 06:27:55;;;;;;;13.80;7.70;;;6.40;99.90;;;;;;4957487;28;20681;-79
2021/11/17 06:30:23;;;;;;;19.73;8.85;;;6.40;99.90;;;;;;4957651;28;20594;-79
2021/11/17 06:32:56;;;;;;;16.88;8.02;;;6.40;99.90;;;;;;4956691;28;20239;-80
2021/11/17 06:35:23;;;;;;;15.70;9.32;;;6.50;99.90;;;;;;4961955;28;20204;-79
2021/11/17 06:37:51;;;;;;;14.20;8.57;;;6.50;99.90;;;;;;4967191;28;20209;-79
2021/11/17 06:40:19;;;;;;;18.75;9.00;;;6.50;99.90;;;;;;4968913;28;20301;-78
2021/11/17 06:42:50;;;;;;;19.95;9.40;;;6.50;99.90;;;;;;4960457;28;20252;-79
2021/11/17 06:45:21;;;;;;;14.70;8.25;;;6.60;99.90;;;;;;4962743;28;20336;-79
2021/11/17 06:47:48;;;;;;;18.20;9.48;;;6.60;99.90;;;;;;4964777;28;20214;-79
2021/11/17 06:50:17;;;;;;;19.65;10.13;;;6.60;99.90;;;;;;4965266;28;20241;-80
2021/11/17 06:52:47;;;;;;;21.15;9.05;;;6.60;99.90;;;;;;4968154;28;20272;-79
2021/11/17 06:55:15;;;;;;;18.95;9.70;;;6.60;99.90;;;;;;4968022;29;20221;-80
2021/11/17 06:57:43;;;;;;;18.83;9.73;;;6.60;99.90;;;;;;4969094;28;20257;-79
2021/11/17 07:00:12;;;;;;;18.45;9.20;;;6.60;99.90;;;;;;4965411;28;20305;-79
2021/11/17 07:02:41;;;;;;;14.85;8.52;;;6.60;99.90;;;;;;4956957;28;20686;-79
2021/11/17 07:05:09;;;;;;;14.00;7.93;;;6.70;99.90;;;;;;4957176;28;20233;-79
2021/11/17 07:07:36;;;;;;;13.02;8.45;;;6.60;99.90;;;;;;4961255;28;20301;-79
2021/11/17 07:10:04;;;;;;;17.35;9.43;;;6.60;99.90;;;;;;4969563;28;20251;-79
2021/11/17 07:12:31;;;;;;;15.82;8.50;;;6.60;99.90;;;;;;4971274;28;20216;-79
2021/11/17 07:14:58;;;;;;;14.70;7.82;;;6.70;99.90;;;;;;4971906;28;20293;-79
2021/11/17 07:17:25;;;;;;;15.45;8.52;;;6.80;99.90;;;;;;4971558;28;20704;-80
2021/11/17 07:19:53;;;;;;;15.40;8.18;;;6.80;99.90;;;;;;4963399;28;20257;-79
2021/11/17 07:22:20;;;;;;;17.92;9.20;;;6.80;99.90;;;;;;4960468;28;20214;-79
2021/11/17 07:24:47;;;;;;;16.13;8.30;;;6.70;99.90;;;;;;4957368;28;20286;-79
2021/11/17 07:27:18;;;;;;;13.88;8.70;;;6.70;99.90;;;;;;4960355;28;20197;-78
2021/11/17 07:29:45;;;;;;;14.20;7.80;;;6.80;99.90;;;;;;4963696;28;20239;-79
2021/11/17 07:32:13;;;;;;;14.88;8.00;;;6.70;99.90;;;;;;4968516;28;20301;-80
2021/11/17 07:34:40;;;;;;;17.20;8.30;;;6.80;99.90;;;;;;4967656;28;20227;-80
2021/11/17 07:37:08;;;;;;;16.65;9.18;;;6.80;99.90;;;;;;4965652;28;20240;-79
2021/11/17 07:39:35;;;;;;;13.50;7.25;;;6.90;99.90;;;;;;4960773;28;20234;-79
2021/11/17 07:42:03;;;;;;;12.65;8.05;;;6.80;99.40;;;;;;4959671;28;20221;-79
2021/11/17 07:44:30;;;;;;;11.48;6.63;;;6.80;98.80;;;;;;4958178;28;20302;-79
2021/11/17 07:46:58;;;;;;;11.63;7.03;;;6.80;96.10;;;;;;4958620;29;20260;-79
2021/11/17 07:49:28;;;;;;;12.60;6.93;;;6.80;94.80;;;;;;4958723;28;20237;-79
2021/11/17 07:51:56;;;;;;;8.05;5.90;;;6.90;94.20;;;;;;4961642;28;20250;-78
2021/11/17 07:54:26;;;;;;;9.10;5.97;;;6.90;93.00;;;;;;4968487;28;20210;-79
2021/11/17 07:56:53;;;;;;;9.25;6.80;;;7.00;92.70;;;;;;4958718;28;20252;-79
2021/11/17 07:59:23;;;;;;;12.68;7.85;;;6.90;92.30;;;;;;4956972;28;20316;-79
2021/11/17 08:01:52;;;;;;;9.02;6.50;;;6.90;92.30;;;;;;4959849;28;20210;-79
2021/11/17 08:04:21;;;;;;;13.68;7.18;;;6.90;92.30;;;;;;4961671;28;20268;-79
2021/11/17 08:06:48;;;;;;;11.52;6.78;;;6.90;92.30;;;;;;4959374;28;20305;-79
2021/11/17 08:09:17;;;;;;;9.80;5.70;;;6.80;92.30;;;;;;4959159;28;20261;-80
2021/11/17 08:11:46;;;;;;;9.82;6.50;;;6.80;92.30;;;;;;4959745;28;20313;-80
2021/11/17 08:14:21;;;;;;;10.73;6.40;;;6.70;92.20;;;;;;4960767;28;20224;-79
2021/11/17 08:16:48;;;;;;;9.40;6.05;;;6.60;92.20;;;;;;4958335;28;20245;-80
2021/11/17 08:19:15;;;;;;;9.57;6.47;;;6.60;93.00;;;;;;4958870;28;20257;-79
2021/11/17 08:21:42;;;;;;;7.95;5.15;;;6.70;93.70;;;;;;4959362;29;20308;-79
2021/11/17 08:24:09;;;;;;;9.30;5.10;;;6.70;93.20;;;;;;4956733;28;20214;-80
2021/11/17 08:26:36;;;;;;;8.30;6.00;;;6.60;92.30;;;;;;4958956;28;20262;-79
2021/11/17 08:29:04;;;;;;;9.88;6.28;;;6.60;93.20;;;;;;4955317;28;20224;-79
2021/11/17 08:31:32;;;;;;;10.93;5.40;;;6.60;94.00;;;;;;4957701;28;20209;-79
2021/11/17 08:33:59;;;;;;;8.27;5.28;;;6.60;94.70;;;;;;4958359;28;20213;-80
2021/11/17 08:36:26;;;;;;;7.97;4.63;;;6.60;94.80;;;;;;4959295;28;20256;-79
2021/11/17 08:38:54;;;;;;;7.70;4.32;;;6.60;94.90;;;;;;4959031;28;20241;-79
2021/11/17 08:41:23;;;;;;;8.10;5.10;;;6.60;95.00;;;;;;4960449;28;20210;-80
2021/11/17 08:43:50;;;;;;;6.97;4.70;;;6.70;94.70;;;;;;4958619;28;20574;-79
2021/11/17 08:46:19;;;;;;;8.65;4.68;;;6.70;94.10;;;;;;4958894;28;20230;-80
2021/11/17 08:48:46;;;;;;;6.88;4.75;;;6.70;93.10;;;;;;4958069;28;20220;-80
2021/11/17 08:51:16;;;;;;;6.38;4.38;;;6.70;92.30;;;;;;5501667;23;20233;-81
2021/11/17 08:53:45;;;;;;;6.05;4.10;;;6.80;92.30;;;;;;4960931;28;20237;-80
2021/11/17 08:56:14;;;;;;;5.95;4.55;;;6.90;92.30;;;;;;4964335;29;20209;-80
2021/11/17 08:58:42;;;;;;;6.03;4.00;;;6.90;91.60;;;;;;4964613;28;20209;-80
2021/11/17 09:01:12;;;;;;;5.10;3.90;;;7.00;87.70;;;;;;4967402;28;20237;-80
2021/11/17 09:03:41;;;;;;;4.05;3.40;;;7.00;84.90;;;;;;4974881;28;20305;-81
2021/11/17 09:06:10;;;;;;;6.20;4.00;;;7.00;83.10;;;;;;4971174;28;20239;-80
2021/11/17 09:08:38;;;;;;;6.13;3.72;;;7.10;81.80;;;;;;4979253;28;20213;-80
2021/11/17 09:11:10;;;;;;;3.95;3.53;;;7.20;81.30;;;;;;4972842;28;20265;-80
2021/11/17 09:13:39;;;;;;;5.00;3.60;;;7.20;81.10;;;;;;4973412;28;20245;-79
2021/11/17 09:16:07;;;;;;;4.65;3.33;;;7.30;78.90;;;;;;4980927;28;20198;-80
2021/11/17 09:18:37;;;;;;;4.97;3.80;;;7.40;75.10;;;;;;4978550;28;20210;-80
2021/11/17 09:21:09;;;;;;;5.43;3.65;;;7.40;75.00;;;;;;4982110;28;20245;-80
2021/11/17 09:23:37;;;;;;;4.65;3.67;;;7.40;71.30;;;;;;4982393;28;20268;-80
2021/11/17 09:26:07;;;;;;;5.25;3.47;;;7.50;71.80;;;;;;4981377;28;20297;-80
2021/11/17 09:28:37;;;;;;;5.28;3.80;;;7.60;70.50;;;;;;4978907;28;20233;-80
2021/11/17 09:31:07;;;;;;;4.72;3.15;;;7.60;70.10;;;;;;4979086;28;20260;-80
2021/11/17 09:33:39;;;;;;;4.38;3.78;;;7.60;69.60;;;;;;4981737;28;20206;-80
2021/11/17 09:36:09;;;;;;;4.25;3.13;;;7.60;70.00;;;;;;4980800;28;20185;-81
2021/11/17 09:38:39;;;;;;;5.47;4.18;;;7.70;70.80;;;;;;4979722;29;20245;-81
2021/11/17 09:41:10;;;;;;;3.92;3.08;;;7.90;70.10;;;;;;4977669;28;20208;-80
2021/11/17 09:43:41;;;;;;;7.15;3.42;;;7.90;69.50;;;;;;4974637;28;20202;-80
2021/11/17 09:46:10;;;;;;;4.10;2.70;;;7.90;69.20;;;;;;4964987;28;20628;-80
2021/11/17 09:48:40;;;;;;;4.43;2.50;;;7.80;68.40;;;;;;4963668;28;20217;-79
2021/11/17 09:51:13;;;;;;;3.20;2.67;;;7.90;67.80;;;;;;4963343;28;20241;-81
2021/11/17 09:53:45;;;;;;;2.92;2.03;;;7.80;67.70;;;;;;4963355;29;20210;-80
2021/11/17 09:56:22;;;;;;;6.35;1.90;;;7.90;66.80;;;;;;4963490;28;20245;-80
2021/11/17 09:58:56;;;;;;;2.40;1.70;;;7.90;66.80;;;;;;4963516;28;20208;-80
2021/11/17 10:01:27;;;;;;;3.03;1.63;;;7.90;66.60;;;;;;4962494;28;20305;-80
2021/11/17 10:04:03;;;;;;;2.47;1.90;;;7.80;65.90;;;;;;4963149;28;20212;-79
2021/11/17 10:36:00;;;;;;;2.13;1.73;;;8.10;63.70;;;;;;5840547;23;20242;-79
2021/11/17 10:38:34;;;;;;;3.13;2.58;;;8.10;64.60;;;;;;5037415;28;20207;-78
2021/11/17 10:41:04;;;;;;;3.03;2.28;;;8.10;64.50;;;;;;5036934;28;20228;-79
2021/11/17 10:46:51;;;;;;;3.83;2.88;;;8.20;65.10;;;;;;4975437;29;20235;-79
2021/11/17 10:52:41;;;;;;;4.32;3.10;;;8.10;65.00;;;;;;5098030;23;20244;-78
2021/11/17 10:55:22;;;;;;;5.80;2.60;;;8.00;65.60;;;;;;5006153;28;20603;-79
2021/11/17 10:57:50;;;;;;;3.60;2.90;;;7.90;66.40;;;;;;5006354;28;20193;-79
2021/11/17 11:00:21;;;;;;;3.20;2.67;;;7.90;66.80;;;;;;5007452;28;20224;-80
2021/11/17 11:02:54;;;;;;;3.22;2.83;;;7.90;66.80;;;;;;5005282;28;20307;-79
2021/11/17 11:05:26;;;;;;;2.90;2.47;;;7.80;66.70;;;;;;5032769;23;20260;-79
2021/11/17 11:08:01;;;;;;;2.83;2.63;;;7.80;67.30;;;;;;5004830;28;20323;-79
2021/11/17 11:10:31;;;;;;;3.85;3.30;;;7.80;67.20;;;;;;5006108;28;20224;-79
2021/11/17 11:12:59;;;;;;;7.50;3.75;;;7.70;67.80;;;;;;5004627;28;20661;-79
2021/11/17 11:15:30;;;;;;;4.97;3.83;;;7.80;68.80;;;;;;4997389;28;20255;-79
2021/11/17 11:18:37;;;;;;;4.68;3.30;;;7.70;68.70;;;;;;5007176;28;20189;-80
2021/11/17 11:21:05;;;;;;;4.63;3.55;;;7.60;68.90;;;;;;5006612;28;20559;-79
2021/11/17 11:23:35;;;;;;;4.30;3.78;;;7.60;68.60;;;;;;5006377;28;20219;-79
2021/11/17 11:26:16;;;;;;;5.53;3.65;;;7.60;69.50;;;;;;4999731;28;20280;-80
2021/11/17 11:29:24;;;;;;;6.28;4.00;;;7.60;70.20;;;;;;5001778;28;20212;-79
2021/11/17 11:31:52;;;;;;;4.93;3.58;;;7.70;70.00;;;;;;5004632;28;20208;-79
2021/11/17 11:34:45;;;;;;;10.43;4.00;;;7.70;69.00;;;;;;5002878;28;20299;-79
2021/11/17 11:37:29;;;;;;;6.07;3.60;;;7.80;68.30;;;;;;5004328;28;20177;-79
2021/11/17 11:39:57;;;;;;;4.18;3.50;;;7.80;66.70;;;;;;5005430;28;20230;-80
2021/11/17 11:42:54;;;;;;;4.60;3.33;;;7.90;66.80;;;;;;5007161;28;20224;-79
2021/11/17 11:45:48;;;;;;;4.72;3.40;;;8.00;66.60;;;;;;5000655;28;20231;-79
2021/11/17 11:48:48;;;;;;;4.25;3.63;;;8.10;66.50;;;;;;4975489;28;20279;-79
2021/11/17 11:51:53;;;;;;;4.30;3.15;;;8.20;65.30;;;;;;4998830;28;20235;-78
2021/11/17 11:54:29;;;;;;;4.15;3.42;;;8.20;64.20;;;;;;4988343;28;20294;-79
2021/11/17 11:57:28;;;;;;;4.15;3.47;;;8.20;63.60;;;;;;4998050;28;20226;-78
2021/11/17 11:59:59;;;;;;;4.85;3.25;;;8.00;63.60;;;;;;5003174;28;20205;-79
2021/11/17 12:02:27;;;;;;;4.20;3.08;;;8.00;62.90;;;;;;5006579;28;20635;-79
2021/11/17 12:04:57;;;;;;;4.25;2.55;;;8.00;62.50;;;;;;5006862;28;20212;-79
2021/11/17 12:07:26;;;;;;;3.58;2.85;;;8.00;61.30;;;;;;5006127;28;20263;-79
2021/11/17 12:10:07;;;;;;;2.78;2.55;;;7.90;62.00;;;;;;5012017;28;20224;-79
2021/11/17 12:12:38;;;;;;;4.05;2.78;;;7.80;61.80;;;;;;5000676;28;20208;-79
2021/11/17 12:15:20;;;;;;;3.20;2.60;;;7.70;62.20;;;;;;4999746;28;20232;-80
2021/11/17 12:17:48;;;;;;;3.10;2.65;;;7.80;62.30;;;;;;5001558;28;20200;-81
2021/11/17 12:20:25;;;;;;;3.35;2.95;;;7.70;62.30;;;;;;5000621;28;20223;-80
2021/11/17 12:22:54;;;;;;;3.28;2.95;;;7.70;61.40;;;;;;5001353;28;20184;-79
2021/11/17 12:25:24;;;;;;;3.38;3.08;;;7.80;62.20;;;;;;4999119;28;20224;-79
2021/11/17 12:27:59;;;;;;;3.13;2.80;;;7.80;62.20;;;;;;4997832;28;20256;-79
2021/11/17 12:30:41;;;;;;;3.20;2.90;;;7.80;62.60;;;;;;4997847;28;20664;-79
2021/11/17 12:33:27;;;;;;;3.65;2.80;;;7.80;62.70;;;;;;5000323;28;20662;-79
2021/11/17 12:36:09;;;;;;;3.50;2.88;;;7.90;63.20;;;;;;5004756;28;20652;-79
2021/11/17 12:38:37;;;;;;;4.80;3.05;;;7.90;62.50;;;;;;5003703;28;20279;-79
2021/11/17 12:41:10;;;;;;;5.38;3.20;;;8.00;62.40;;;;;;5000297;28;20649;-78
2021/11/17 12:43:41;;;;;;;3.58;2.95;;;8.10;62.10;;;;;;4996969;28;20204;-80
2021/11/17 12:46:15;;;;;;;3.83;3.42;;;8.30;61.80;;;;;;4997153;28;20268;-78
2021/11/17 12:48:49;;;;;;;3.15;2.60;;;8.30;60.90;;;;;;4997984;28;20311;-83
2021/11/17 12:51:18;;;;;;;4.22;3.15;;;8.40;61.40;;;;;;5005550;28;20310;-81
2021/11/17 12:53:51;;;;;;;5.25;3.70;;;8.30;61.00;;;;;;5008475;28;20204;-81
2021/11/17 12:56:24;;;;;;;3.58;2.75;;;8.10;61.10;;;;;;5013249;28;20734;-80
2021/11/17 12:58:56;;;;;;;2.88;2.50;;;8.10;61.80;;;;;;5012459;28;20209;-80
2021/11/17 13:01:39;;;;;;;3.42;3.00;;;8.00;62.40;;;;;;5013034;28;20279;-79
2021/11/17 13:04:24;;;;;;;2.58;2.38;;;8.00;62.90;;;;;;5009491;28;20239;-79
2021/11/17 13:06:54;;;;;;;3.75;3.20;;;8.10;63.20;;;;;;4996616;28;20234;-79
2021/11/17 13:09:24;;;;;;;3.15;2.13;;;8.40;62.80;;;;;;4995775;28;20208;-79
2021/11/17 13:11:58;;;;;;;4.18;3.05;;;8.50;61.70;;;;;;4996349;28;20224;-80
2021/11/17 13:14:31;;;;;;;4.63;3.10;;;8.60;61.30;;;;;;4996294;28;20552;-80
2021/11/17 13:17:09;;;;;;;3.95;3.00;;;8.60;60.80;;;;;;4995784;28;20229;-80
2021/11/17 13:19:38;;;;;;;3.50;2.50;;;8.70;60.80;;;;;;4996622;28;20299;-80
2021/11/17 13:22:19;;;;;;;3.67;2.55;;;8.70;60.50;;;;;;4997184;28;20209;-79
2021/11/17 13:24:48;;;;;;;2.95;2.65;;;8.70;60.00;;;;;;4997018;28;20247;-80
2021/11/17 13:27:34;;;;;;;3.13;2.70;;;8.70;59.90;;;;;;4995279;28;20311;-80
2021/11/17 13:30:28;;;;;;;3.00;2.70;;;8.70;59.80;;;;;;4994040;28;20266;-79
2021/11/17 13:32:56;;;;;;;3.50;3.00;;;8.70;60.20;;;;;;4993346;28;20271;-79
2021/11/17 13:35:30;;;;;;;4.70;3.03;;;8.80;59.90;;;;;;4993804;28;20287;-79
2021/11/17 13:38:19;;;;;;;2.95;2.65;;;8.60;60.00;;;;;;4994732;28;20212;-79
2021/11/17 13:40:49;;;;;;;4.35;3.63;;;8.50;60.40;;;;;;4995949;28;20209;-80
2021/11/17 13:43:17;;;;;;;3.67;3.22;;;8.50;60.60;;;;;;4998434;28;20226;-79
2021/11/17 13:45:46;;;;;;;5.35;3.58;;;8.60;61.10;;;;;;4998868;28;20303;-79
2021/11/17 13:48:15;;;;;;;3.50;3.20;;;8.50;61.50;;;;;;4999487;28;20251;-79
2021/11/17 13:50:43;;;;;;;4.35;3.63;;;8.60;61.50;;;;;;4999446;28;20300;-79
2021/11/17 13:53:12;;;;;;;3.58;3.05;;;8.60;61.50;;;;;;4999405;28;20208;-79
2021/11/17 13:55:42;;;;;;;3.53;3.10;;;8.60;61.80;;;;;;5001724;28;20235;-80
2021/11/17 13:58:10;;;;;;;4.32;3.28;;;8.50;61.90;;;;;;5001362;28;20212;-79
2021/11/17 14:00:41;;;;;;;6.28;3.55;;;8.50;61.80;;;;;;5004521;28;20223;-79
2021/11/17 14:03:10;;;;;;;4.50;3.75;;;8.50;62.30;;;;;;5005463;28;20219;-80
2021/11/17 14:05:40;;;;;;;5.22;4.28;;;8.60;62.30;;;;;;5014797;28;20220;-80
2021/11/17 14:08:07;;;;;;;5.32;4.07;;;8.40;62.40;;;;;;5015892;28;20228;-79
2021/11/17 14:10:34;;;;;;;4.00;3.67;;;8.40;63.10;;;;;;5016886;28;20212;-82
2021/11/17 14:13:02;;;;;;;4.78;4.03;;;8.30;63.20;;;;;;5008529;28;20200;-80
2021/11/17 14:15:29;;;;;;;6.07;4.30;;;8.20;64.30;;;;;;4998725;28;20236;-81
2021/11/17 14:17:56;;;;;;;6.13;4.80;;;8.10;63.90;;;;;;4999614;28;20208;-79
2021/11/17 14:20:25;;;;;;;7.50;5.28;;;8.00;64.20;;;;;;4998167;28;20556;-80
2021/11/17 14:22:52;;;;;;;5.35;3.88;;;8.00;64.40;;;;;;4998177;28;20307;-79
2021/11/17 14:25:22;;;;;;;6.00;4.45;;;8.00;64.10;;;;;;5006873;28;20236;-80
2021/11/17 14:27:52;;;;;;;7.05;4.80;;;8.00;64.10;;;;;;5003426;28;20240;-79
2021/11/17 14:30:23;;;;;;;7.45;4.65;;;8.00;64.60;;;;;;5000397;28;20380;-79
2021/11/17 14:32:52;;;;;;;6.47;4.50;;;8.00;65.00;;;;;;5004058;28;20204;-79
2021/11/17 14:35:21;;;;;;;5.18;4.60;;;8.00;64.90;;;;;;5000578;28;20239;-79
2021/11/17 14:37:49;;;;;;;4.97;4.10;;;8.00;65.50;;;;;;5011612;28;20227;-79
2021/11/17 14:40:18;;;;;;;4.40;4.00;;;8.10;65.60;;;;;;5009790;28;20276;-79
2021/11/17 14:42:45;;;;;;;6.22;4.10;;;8.20;65.20;;;;;;5011208;28;20243;-79
2021/11/17 14:45:15;;;;;;;6.47;4.60;;;8.20;64.60;;;;;;5008849;28;20319;-79
2021/11/17 14:47:42;;;;;;;4.80;4.28;;;8.20;64.50;;;;;;5014488;28;20208;-79
2021/11/17 14:50:10;;;;;;;4.65;4.07;;;8.20;64.30;;;;;;5012539;28;20246;-78
2021/11/17 14:52:38;;;;;;;4.22;3.83;;;8.20;64.50;;;;;;5013707;28;20212;-79
2021/11/17 14:55:10;;;;;;;5.78;3.85;;;8.20;64.30;;;;;;5016525;28;20225;-79
2021/11/17 14:57:38;;;;;;;6.30;4.18;;;8.10;64.40;;;;;;5014061;28;20220;-79
2021/11/17 15:00:07;;;;;;;5.97;4.45;;;8.10;65.10;;;;;;5009715;28;20204;-80
2021/11/17 15:02:36;;;;;;;5.93;4.18;;;8.10;64.80;;;;;;4998858;28;20213;-80
2021/11/17 15:05:04;;;;;;;5.78;4.40;;;8.00;65.40;;;;;;5001462;28;20240;-81
2021/11/17 15:07:31;;;;;;;5.05;3.90;;;8.00;65.80;;;;;;5000928;28;20221;-80
2021/11/17 15:09:57;;;;;;;5.10;4.00;;;8.10;66.90;;;;;;4999039;28;20243;-79
2021/11/17 15:12:31;;;;;;;6.60;4.13;;;8.10;66.00;;;;;;4995210;28;20568;-79
2021/11/17 15:14:58;;;;;;;4.75;4.13;;;8.00;66.10;;;;;;4999261;28;20220;-79
2021/11/17 15:17:26;;;;;;;5.47;4.32;;;8.00;66.40;;;;;;4997920;28;20223;-79
2021/11/17 15:19:53;;;;;;;4.45;3.60;;;8.00;66.80;;;;;;4996501;28;20303;-79
2021/11/17 15:22:22;;;;;;;5.00;3.70;;;8.00;66.50;;;;;;5000549;28;20244;-80
2021/11/17 15:24:49;;;;;;;4.93;3.92;;;8.00;66.10;;;;;;4999480;28;20280;-79
2021/11/17 15:27:32;;;;;;;5.65;4.80;;;8.00;66.20;;;;;;4995494;28;20208;-78
2021/11/17 15:30:00;;;;;;;5.50;4.60;;;8.00;66.90;;;;;;4995631;28;20272;-79
2021/11/17 15:32:27;;;;;;;4.63;3.97;;;8.00;66.80;;;;;;4997375;28;20291;-79
2021/11/17 15:34:54;;;;;;;8.43;4.85;;;7.90;66.80;;;;;;5000677;28;20262;-80
2021/11/17 15:37:21;;;;;;;5.95;4.72;;;7.90;66.80;;;;;;4998494;28;20303;-79
2021/11/17 15:39:48;;;;;;;5.20;4.18;;;7.90;66.80;;;;;;5004348;28;20205;-80
2021/11/17 15:42:15;;;;;;;5.75;5.15;;;7.90;66.80;;;;;;5003606;28;20255;-80
2021/11/17 15:44:43;;;;;;;6.15;4.43;;;7.90;66.80;;;;;;5013846;28;20196;-80
2021/11/17 15:47:11;;;;;;;4.93;4.30;;;7.90;66.80;;;;;;5016049;28;20210;-79
2021/11/17 15:49:41;;;;;;;8.02;5.43;;;7.90;66.80;;;;;;5010857;28;20227;-79
2021/11/17 15:52:08;;;;;;;8.23;4.90;;;7.90;67.10;;;;;;5001655;28;20276;-78
2021/11/17 15:54:36;;;;;;;6.93;5.00;;;8.00;66.90;;;;;;4999285;28;20215;-79
2021/11/17 15:57:03;;;;;;;6.20;4.10;;;7.90;66.80;;;;;;4999681;28;20232;-79
2021/11/17 15:59:30;;;;;;;5.95;4.75;;;7.90;67.50;;;;;;4995265;28;20219;-80
2021/11/17 16:01:59;;;;;;;7.07;4.32;;;7.80;67.80;;;;;;4994462;28;20216;-78
2021/11/17 16:04:27;;;;;;;5.22;4.40;;;7.80;68.20;;;;;;5001664;28;20295;-78
2021/11/17 16:07:00;;;;;;;5.20;4.30;;;7.80;68.90;;;;;;5008839;28;20244;-80
2021/11/17 16:09:30;;;;;;;6.72;4.65;;;7.80;69.50;;;;;;5008678;28;20679;-79
2021/11/17 16:11:57;;;;;;;5.50;4.30;;;7.80;70.10;;;;;;5010404;28;20219;-82
2021/11/17 16:14:25;;;;;;;6.88;4.55;;;7.80;69.90;;;;;;5010942;28;20196;-83
2021/11/17 16:16:52;;;;;;;5.05;4.40;;;7.90;69.80;;;;;;5007108;28;20235;-78
2021/11/17 16:19:21;;;;;;;6.80;4.30;;;7.80;69.70;;;;;;5010281;28;20214;-81
2021/11/17 16:21:52;;;;;;;5.97;3.80;;;7.80;69.70;;;;;;5011462;28;20215;-80
2021/11/17 16:27:05;;;;;;;6.25;4.30;;;7.80;70.10;;;;;;4999660;28;20255;-81
2021/11/17 16:29:32;;;;;;;5.13;3.80;;;7.80;70.60;;;;;;4999923;28;20232;-80
2021/11/17 16:31:59;;;;;;;4.53;4.07;;;7.80;69.70;;;;;;5006809;28;20232;-80
2021/11/17 16:34:28;;;;;;;6.30;4.30;;;7.80;69.70;;;;;;5003666;28;20212;-80